createdAt,value
2018-08-31T00:00:05.370Z,7.10
2018-08-31T00:00:25.266Z,10.30
2018-08-31T00:00:45.772Z,9.90
2018-08-31T00:01:05.973Z,7.80
2018-08-31T00:01:25.829Z,5.40
2018-08-31T00:01:46.267Z,6.20
2018-08-31T00:02:06.976Z,6.80
2018-08-31T00:02:26.833Z,6.40
2018-08-31T00:02:47.194Z,6.90
2018-08-31T00:03:07.857Z,6.80
2018-08-31T00:03:27.716Z,7.00
2018-08-31T00:03:48.266Z,6.20
2018-08-31T00:04:08.421Z,5.20
2018-08-31T00:04:28.279Z,6.60
2018-08-31T00:04:49.008Z,6.10
2018-08-31T00:05:09.228Z,7.10
2018-08-31T00:05:29.079Z,5.10
2018-08-31T00:05:49.778Z,5.10
2018-08-31T00:06:29.644Z,6.80
2018-08-31T00:06:50.376Z,6.90
2018-08-31T00:07:10.279Z,6.40
2018-08-31T00:07:30.636Z,5.90
2018-08-31T00:07:51.294Z,5.00
2018-08-31T00:08:11.181Z,4.70
2018-08-31T00:08:31.653Z,4.50
2018-08-31T00:08:52.314Z,5.40
2018-08-31T00:09:12.180Z,4.50
2018-08-31T00:09:32.714Z,5.70
2018-08-31T00:09:52.849Z,5.10
2018-08-31T00:10:12.788Z,6.70
2018-08-31T00:10:33.316Z,6.60
2018-08-31T00:10:53.465Z,6.60
2018-08-31T00:11:13.326Z,5.10
2018-08-31T00:11:34.005Z,4.50
2018-08-31T00:11:54.143Z,4.60
2018-08-31T00:12:14.009Z,5.80
2018-08-31T00:12:34.739Z,7.10
2018-08-31T00:12:54.881Z,7.80
2018-08-31T00:13:14.736Z,8.20
2018-08-31T00:13:35.460Z,7.60
2018-08-31T00:13:55.317Z,7.50
2018-08-31T00:14:15.668Z,5.90
2018-08-31T00:14:36.304Z,5.80
2018-08-31T00:14:56.150Z,4.80
2018-08-31T00:15:16.621Z,5.50
2018-08-31T00:15:37.297Z,4.70
2018-08-31T00:15:57.164Z,5.10
2018-08-31T00:16:17.520Z,5.40
2018-08-31T00:16:38.172Z,5.80
2018-08-31T00:16:58.039Z,6.20
2018-08-31T00:17:18.728Z,7.00
2018-08-31T00:17:58.599Z,6.90
2018-08-31T00:18:19.353Z,6.70
2018-08-31T00:18:39.379Z,5.10
2018-08-31T00:18:59.242Z,5.80
2018-08-31T00:19:19.949Z,4.60
2018-08-31T00:19:39.863Z,5.90
2018-08-31T00:20:00.330Z,9.00
2018-08-31T00:20:21.037Z,10.10
2018-08-31T00:20:40.883Z,9.80
2018-08-31T00:21:01.229Z,6.80
2018-08-31T00:21:21.950Z,6.10
2018-08-31T00:21:41.812Z,8.80
2018-08-31T00:22:02.163Z,8.70
2018-08-31T00:22:22.799Z,8.40
2018-08-31T00:22:42.656Z,6.00
2018-08-31T00:23:03.391Z,6.60
2018-08-31T00:23:23.522Z,6.50
2018-08-31T00:23:43.401Z,6.50
2018-08-31T00:24:04.157Z,7.00
2018-08-31T00:24:24.291Z,6.80
2018-08-31T00:24:44.152Z,5.80
2018-08-31T00:25:04.911Z,4.20
2018-08-31T00:25:24.769Z,5.10
2018-08-31T00:25:45.125Z,5.20
2018-08-31T00:26:05.869Z,6.10
2018-08-31T00:26:25.778Z,5.60
2018-08-31T00:26:46.133Z,4.80
2018-08-31T00:27:06.840Z,4.60
2018-08-31T00:27:26.696Z,4.90
2018-08-31T00:27:47.047Z,6.70
2018-08-31T00:28:07.621Z,6.60
2018-08-31T00:28:27.520Z,6.10
2018-08-31T00:28:47.898Z,5.00
2018-08-31T00:29:08.822Z,5.90
2018-08-31T00:29:28.728Z,5.90
2018-08-31T00:29:49.388Z,6.40
2018-08-31T00:30:09.321Z,6.10
2018-08-31T00:30:29.681Z,6.20
2018-08-31T00:30:50.375Z,6.20
2018-08-31T00:31:10.229Z,5.80
2018-08-31T00:31:30.587Z,6.70
2018-08-31T00:31:51.261Z,6.60
2018-08-31T00:32:31.134Z,5.10
2018-08-31T00:32:51.801Z,5.30
2018-08-31T00:33:11.651Z,6.20
2018-08-31T00:33:32.016Z,6.20
2018-08-31T00:33:52.671Z,6.80
2018-08-31T00:34:12.544Z,6.60
2018-08-31T00:34:33.148Z,7.20
2018-08-31T00:34:53.304Z,8.00
2018-08-31T00:35:13.175Z,7.40
2018-08-31T00:35:33.857Z,7.40
2018-08-31T00:35:54.116Z,6.60
2018-08-31T00:36:14.081Z,8.00
2018-08-31T00:36:34.775Z,8.30
2018-08-31T00:36:54.896Z,7.80
2018-08-31T00:37:14.752Z,6.00
2018-08-31T00:37:35.492Z,4.80
2018-08-31T00:37:55.337Z,4.80
2018-08-31T00:38:15.702Z,7.00
2018-08-31T00:38:36.411Z,6.40
2018-08-31T00:38:56.277Z,6.10
2018-08-31T00:39:16.630Z,4.90
2018-08-31T00:39:37.298Z,5.00
2018-08-31T00:39:57.159Z,6.10
2018-08-31T00:40:17.640Z,5.60
2018-08-31T00:40:38.285Z,5.80
2018-08-31T00:40:58.158Z,4.90
2018-08-31T00:41:18.819Z,5.30
2018-08-31T00:41:38.941Z,7.00
2018-08-31T00:41:58.802Z,7.50
2018-08-31T00:42:19.512Z,9.10
2018-08-31T00:42:39.544Z,8.20
2018-08-31T00:42:59.405Z,7.20
2018-08-31T00:43:20.203Z,5.20
2018-08-31T00:43:40.058Z,6.10
2018-08-31T00:44:00.424Z,7.30
2018-08-31T00:44:21.169Z,7.40
2018-08-31T00:44:41.026Z,7.50
2018-08-31T00:45:01.442Z,7.20
2018-08-31T00:45:22.111Z,7.30
2018-08-31T00:45:41.975Z,6.40
2018-08-31T00:46:02.556Z,8.30
2018-08-31T00:46:22.692Z,8.80
2018-08-31T00:46:42.545Z,9.80
2018-08-31T00:47:02.965Z,7.70
2018-08-31T00:47:23.810Z,6.70
2018-08-31T00:47:43.670Z,7.10
2018-08-31T00:48:04.363Z,8.10
2018-08-31T00:48:24.212Z,7.50
2018-08-31T00:48:44.567Z,6.40
2018-08-31T00:49:05.309Z,5.80
2018-08-31T00:49:45.191Z,5.50
2018-08-31T00:50:05.911Z,4.80
2018-08-31T00:50:25.761Z,5.20
2018-08-31T00:50:46.120Z,7.30
2018-08-31T00:51:06.880Z,7.60
2018-08-31T00:51:26.734Z,8.20
2018-08-31T00:51:47.154Z,7.20
2018-08-31T00:52:07.797Z,7.60
2018-08-31T00:52:27.726Z,7.00
2018-08-31T00:52:48.186Z,6.90
2018-08-31T00:53:08.837Z,7.20
2018-08-31T00:53:28.693Z,8.10
2018-08-31T00:53:49.396Z,6.50
2018-08-31T00:54:09.243Z,6.90
2018-08-31T00:54:29.611Z,6.90
2018-08-31T00:54:50.319Z,8.30
2018-08-31T00:55:10.359Z,9.20
2018-08-31T00:55:30.298Z,9.30
2018-08-31T00:55:51.027Z,6.90
2018-08-31T00:56:10.883Z,4.80
2018-08-31T00:56:31.245Z,4.20
2018-08-31T00:56:51.919Z,7.30
2018-08-31T00:57:11.823Z,7.80
2018-08-31T00:57:32.197Z,8.00
2018-08-31T00:57:52.834Z,5.40
2018-08-31T00:58:12.772Z,5.70
2018-08-31T00:58:33.360Z,6.50
2018-08-31T00:58:53.507Z,7.90
2018-08-31T00:59:13.365Z,8.40
2018-08-31T00:59:34.065Z,6.50
2018-08-31T00:59:54.156Z,5.50
2018-08-31T01:00:14.063Z,5.00
2018-08-31T01:00:34.767Z,5.60
2018-08-31T01:00:54.766Z,6.80
2018-08-31T01:01:15.127Z,6.60
2018-08-31T01:01:35.853Z,6.20
2018-08-31T01:01:55.732Z,4.00
2018-08-31T01:02:16.082Z,4.20
2018-08-31T01:02:36.790Z,4.10
2018-08-31T01:02:56.634Z,4.40
2018-08-31T01:03:17.148Z,5.30
2018-08-31T01:03:37.309Z,5.00
2018-08-31T01:03:57.159Z,5.50
2018-08-31T01:04:17.504Z,5.60
2018-08-31T01:04:38.165Z,6.20
2018-08-31T01:04:58.024Z,6.40
2018-08-31T01:05:18.676Z,6.80
2018-08-31T01:05:38.963Z,7.20
2018-08-31T01:05:58.866Z,6.40
2018-08-31T01:06:19.586Z,5.60
2018-08-31T01:06:39.592Z,5.50
2018-08-31T01:06:59.448Z,5.20
2018-08-31T01:07:20.195Z,8.10
2018-08-31T01:08:00.048Z,6.90
2018-08-31T01:08:20.772Z,4.60
2018-08-31T01:08:40.631Z,5.90
2018-08-31T01:09:00.998Z,6.60
2018-08-31T01:09:21.701Z,6.60
2018-08-31T01:09:41.575Z,6.50
2018-08-31T01:10:02.205Z,5.50
2018-08-31T01:10:22.376Z,5.80
2018-08-31T01:10:42.306Z,6.40
2018-08-31T01:11:02.938Z,6.90
2018-08-31T01:11:23.086Z,7.10
2018-08-31T01:11:42.940Z,6.50
2018-08-31T01:12:23.606Z,6.70
2018-08-31T01:12:43.454Z,7.50
2018-08-31T01:13:04.182Z,6.40
2018-08-31T01:13:24.412Z,6.00
2018-08-31T01:13:44.264Z,5.20
2018-08-31T01:14:04.956Z,6.20
2018-08-31T01:14:24.815Z,5.10
2018-08-31T01:14:45.180Z,5.30
2018-08-31T01:15:05.922Z,4.70
2018-08-31T01:15:25.980Z,5.80
2018-08-31T01:15:45.833Z,5.80
2018-08-31T01:16:06.530Z,6.80
2018-08-31T01:16:26.393Z,7.30
2018-08-31T01:16:46.743Z,6.80
2018-08-31T01:17:07.396Z,6.70
2018-08-31T01:17:27.238Z,6.20
2018-08-31T01:17:47.775Z,6.80
2018-08-31T01:18:07.781Z,5.40
2018-08-31T01:18:27.628Z,5.60
2018-08-31T01:18:48.050Z,5.20
2018-08-31T01:19:08.403Z,5.60
2018-08-31T01:19:28.752Z,5.10
2018-08-31T01:19:49.475Z,5.80
2018-08-31T01:20:09.335Z,6.10
2018-08-31T01:20:29.806Z,7.10
2018-08-31T01:20:50.554Z,7.30
2018-08-31T01:21:10.410Z,7.90
2018-08-31T01:21:30.769Z,6.00
2018-08-31T01:21:51.425Z,5.70
2018-08-31T01:22:11.274Z,4.60
2018-08-31T01:22:31.775Z,5.40
2018-08-31T01:22:52.432Z,4.70
2018-08-31T01:23:12.294Z,5.10
2018-08-31T01:23:32.651Z,5.10
2018-08-31T01:23:53.304Z,6.60
2018-08-31T01:24:13.258Z,5.70
2018-08-31T01:24:33.986Z,5.50
2018-08-31T01:24:54.199Z,4.50
2018-08-31T01:25:14.304Z,4.50
2018-08-31T01:25:34.507Z,4.30
2018-08-31T01:25:54.555Z,4.90
2018-08-31T01:26:14.412Z,5.20
2018-08-31T01:26:35.124Z,5.00
2018-08-31T01:26:54.997Z,4.20
2018-08-31T01:27:15.348Z,4.30
2018-08-31T01:27:36.059Z,6.20
2018-08-31T01:27:55.914Z,6.50
2018-08-31T01:28:16.270Z,8.30
2018-08-31T01:28:36.918Z,7.70
2018-08-31T01:28:56.770Z,7.30
2018-08-31T01:29:17.133Z,5.70
2018-08-31T01:29:37.771Z,5.90
2018-08-31T01:29:57.656Z,7.20
2018-08-31T01:30:18.364Z,7.10
2018-08-31T01:30:58.239Z,4.90
2018-08-31T01:31:18.969Z,5.20
2018-08-31T01:31:38.994Z,5.50
2018-08-31T01:31:58.852Z,5.40
2018-08-31T01:32:19.573Z,5.60
2018-08-31T01:32:39.573Z,6.50
2018-08-31T01:32:59.940Z,5.70
2018-08-31T01:33:20.679Z,4.20
2018-08-31T01:33:40.537Z,4.00
2018-08-31T01:34:00.893Z,4.70
2018-08-31T01:34:21.419Z,7.90
2018-08-31T01:34:41.285Z,7.60
2018-08-31T01:35:01.640Z,7.60
2018-08-31T01:35:22.333Z,5.20
2018-08-31T01:35:42.300Z,5.60
2018-08-31T01:36:03.008Z,5.10
2018-08-31T01:36:23.169Z,6.00
2018-08-31T01:36:43.016Z,5.40
2018-08-31T01:37:03.712Z,5.90
2018-08-31T01:37:23.939Z,4.10
2018-08-31T01:37:43.791Z,4.90
2018-08-31T01:38:04.513Z,5.70
2018-08-31T01:38:24.561Z,7.00
2018-08-31T01:38:44.417Z,6.60
2018-08-31T01:39:05.158Z,7.00
2018-08-31T01:39:25.020Z,5.80
2018-08-31T01:39:45.428Z,7.60
2018-08-31T01:40:06.109Z,5.80
2018-08-31T01:40:25.981Z,6.50
2018-08-31T01:40:46.340Z,5.70
2018-08-31T01:41:07.014Z,6.70
2018-08-31T01:41:26.868Z,6.40
2018-08-31T01:41:47.226Z,6.20
2018-08-31T01:42:07.868Z,5.30
2018-08-31T01:42:27.730Z,5.30
2018-08-31T01:42:48.365Z,5.10
2018-08-31T01:43:08.415Z,7.20
2018-08-31T01:43:28.268Z,8.00
2018-08-31T01:43:48.952Z,8.20
2018-08-31T01:44:09.155Z,7.30
2018-08-31T01:44:29.018Z,7.10
2018-08-31T01:44:49.729Z,6.00
2018-08-31T01:45:09.881Z,6.10
2018-08-31T01:45:29.822Z,6.90
2018-08-31T01:45:50.566Z,8.90
2018-08-31T01:46:10.445Z,7.30
2018-08-31T01:46:30.793Z,5.80
2018-08-31T01:46:51.487Z,4.60
2018-08-31T01:47:11.340Z,5.40
2018-08-31T01:47:31.683Z,6.00
2018-08-31T01:47:52.388Z,7.10
2018-08-31T01:48:12.248Z,6.70
2018-08-31T01:48:32.610Z,7.40
2018-08-31T01:48:53.263Z,6.20
2018-08-31T01:49:13.121Z,6.40
2018-08-31T01:49:33.784Z,6.00
2018-08-31T01:49:53.923Z,5.10
2018-08-31T01:50:13.816Z,5.40
2018-08-31T01:50:34.560Z,4.90
2018-08-31T01:50:54.689Z,8.40
2018-08-31T01:51:14.596Z,9.70
2018-08-31T01:51:35.333Z,9.40
2018-08-31T01:51:55.177Z,7.50
2018-08-31T01:52:15.545Z,5.70
2018-08-31T01:52:36.238Z,5.90
2018-08-31T01:52:56.069Z,5.00
2018-08-31T01:53:16.418Z,5.60
2018-08-31T01:53:36.768Z,5.60
2018-08-31T01:53:57.306Z,5.90
2018-08-31T01:54:17.168Z,6.10
2018-08-31T01:54:37.810Z,7.00
2018-08-31T01:54:57.672Z,5.90
2018-08-31T01:55:18.129Z,6.30
2018-08-31T01:55:38.771Z,4.70
2018-08-31T01:55:58.745Z,5.10
2018-08-31T01:56:19.518Z,7.00
2018-08-31T01:56:39.403Z,10.00
2018-08-31T01:57:20.172Z,8.90
2018-08-31T01:57:40.046Z,6.60
2018-08-31T01:58:00.403Z,7.50
2018-08-31T01:58:21.130Z,7.00
2018-08-31T01:58:40.984Z,7.40
2018-08-31T01:59:01.344Z,6.20
2018-08-31T01:59:22.010Z,6.60
2018-08-31T01:59:41.866Z,8.80
2018-08-31T02:00:02.524Z,9.40
2018-08-31T02:00:22.664Z,8.70
2018-08-31T02:00:42.529Z,6.90
2018-08-31T02:01:02.890Z,7.10
2018-08-31T02:01:23.538Z,8.10
2018-08-31T02:01:43.386Z,6.80
2018-08-31T02:02:04.047Z,6.40
2018-08-31T02:02:24.250Z,4.60
2018-08-31T02:02:44.108Z,4.60
2018-08-31T02:03:04.803Z,3.80
2018-08-31T02:03:24.953Z,4.20
2018-08-31T02:03:45.055Z,4.40
2018-08-31T02:04:05.310Z,5.30
2018-08-31T02:04:25.122Z,5.60
2018-08-31T02:05:05.905Z,5.30
2018-08-31T02:05:25.767Z,4.40
2018-08-31T02:05:46.138Z,4.20
2018-08-31T02:06:06.808Z,5.90
2018-08-31T02:06:26.663Z,8.20
2018-08-31T02:06:47.019Z,8.40
2018-08-31T02:07:07.657Z,6.90
2018-08-31T02:07:27.534Z,8.30
2018-08-31T02:07:47.915Z,10.30
2018-08-31T02:08:08.272Z,9.50
2018-08-31T02:08:28.623Z,7.90
2018-08-31T02:08:49.327Z,8.20
2018-08-31T02:09:09.513Z,9.70
2018-08-31T02:09:29.372Z,7.90
2018-08-31T02:09:50.111Z,7.30
2018-08-31T02:10:09.958Z,8.60
2018-08-31T02:10:30.306Z,8.50
2018-08-31T02:10:51.003Z,7.80
2018-08-31T02:11:10.874Z,5.40
2018-08-31T02:11:31.220Z,5.30
2018-08-31T02:11:51.979Z,4.70
2018-08-31T02:12:11.831Z,4.40
2018-08-31T02:12:32.184Z,4.70
2018-08-31T02:12:52.532Z,4.50
2018-08-31T02:13:12.896Z,5.00
2018-08-31T02:13:33.489Z,6.80
2018-08-31T02:13:53.632Z,7.10
2018-08-31T02:14:13.487Z,5.70
2018-08-31T02:14:34.170Z,3.90
2018-08-31T02:14:54.168Z,5.50
2018-08-31T02:15:14.348Z,7.20
2018-08-31T02:15:34.563Z,6.80
2018-08-31T02:15:54.470Z,6.60
2018-08-31T02:16:14.829Z,6.10
2018-08-31T02:16:35.556Z,7.20
2018-08-31T02:16:55.410Z,5.50
2018-08-31T02:17:15.768Z,5.90
2018-08-31T02:17:36.422Z,8.70
2018-08-31T02:17:56.280Z,8.70
2018-08-31T02:18:16.632Z,7.10
2018-08-31T02:18:37.256Z,4.20
2018-08-31T02:18:57.107Z,4.00
2018-08-31T02:19:17.464Z,5.20
2018-08-31T02:19:38.109Z,6.60
2018-08-31T02:20:18.098Z,7.10
2018-08-31T02:20:38.762Z,5.10
2018-08-31T02:20:58.673Z,4.50
2018-08-31T02:21:19.379Z,4.80
2018-08-31T02:21:39.410Z,5.60
2018-08-31T02:21:59.270Z,6.50
2018-08-31T02:22:20.069Z,5.40
2018-08-31T02:22:39.908Z,5.60
2018-08-31T02:23:00.265Z,4.70
2018-08-31T02:23:20.959Z,5.20
2018-08-31T02:23:40.815Z,4.40
2018-08-31T02:24:01.175Z,6.10
2018-08-31T02:24:21.843Z,6.30
2018-08-31T02:24:41.697Z,7.20
2018-08-31T02:25:02.290Z,5.60
2018-08-31T02:25:22.445Z,6.10
2018-08-31T02:25:42.432Z,5.80
2018-08-31T02:26:02.803Z,7.80
2018-08-31T02:26:23.457Z,8.20
2018-08-31T02:26:43.315Z,8.80
2018-08-31T02:27:04.061Z,6.90
2018-08-31T02:27:24.026Z,5.90
2018-08-31T02:27:44.381Z,6.10
2018-08-31T02:28:05.210Z,5.10
2018-08-31T02:28:25.061Z,6.20
2018-08-31T02:28:45.413Z,5.20
2018-08-31T02:29:06.154Z,9.50
2018-08-31T02:29:26.015Z,8.20
2018-08-31T02:29:46.383Z,7.50
2018-08-31T02:30:07.070Z,4.00
2018-08-31T02:30:26.931Z,6.50
2018-08-31T02:30:47.286Z,7.40
2018-08-31T02:31:07.854Z,7.30
2018-08-31T02:31:27.705Z,6.50
2018-08-31T02:31:48.202Z,6.40
2018-08-31T02:32:08.853Z,6.00
2018-08-31T02:32:28.704Z,6.30
2018-08-31T02:32:49.392Z,7.10
2018-08-31T02:33:09.237Z,7.90
2018-08-31T02:33:29.617Z,7.30
2018-08-31T02:33:50.360Z,5.70
2018-08-31T02:34:10.235Z,5.00
2018-08-31T02:34:30.675Z,4.80
2018-08-31T02:34:51.341Z,5.80
2018-08-31T02:35:11.188Z,5.90
2018-08-31T02:35:31.531Z,7.20
2018-08-31T02:35:52.209Z,6.70
2018-08-31T02:36:12.081Z,5.90
2018-08-31T02:36:32.458Z,6.00
2018-08-31T02:36:53.094Z,6.60
2018-08-31T02:37:12.946Z,7.40
2018-08-31T02:37:33.600Z,6.30
2018-08-31T02:37:53.749Z,6.40
2018-08-31T02:38:13.620Z,6.20
2018-08-31T02:38:34.337Z,6.40
2018-08-31T02:38:54.418Z,7.90
2018-08-31T02:39:14.314Z,7.60
2018-08-31T02:39:35.060Z,7.70
2018-08-31T02:39:54.921Z,6.80
2018-08-31T02:40:15.503Z,6.40
2018-08-31T02:40:35.700Z,5.50
2018-08-31T02:40:55.561Z,4.00
2018-08-31T02:41:15.913Z,4.40
2018-08-31T02:41:36.567Z,4.20
2018-08-31T02:41:56.525Z,5.10
2018-08-31T02:42:16.880Z,4.50
2018-08-31T02:42:37.523Z,6.10
2018-08-31T02:42:57.374Z,5.70
2018-08-31T02:43:17.794Z,6.40
2018-08-31T02:43:38.447Z,4.80
2018-08-31T02:43:58.373Z,5.70
2018-08-31T02:44:19.028Z,5.70
2018-08-31T02:44:39.183Z,5.60
2018-08-31T02:44:59.202Z,5.60
2018-08-31T02:45:19.400Z,7.00
2018-08-31T02:45:39.492Z,7.10
2018-08-31T02:45:59.353Z,8.00
2018-08-31T02:46:20.110Z,7.60
2018-08-31T02:46:39.970Z,8.40
2018-08-31T02:47:00.403Z,9.20
2018-08-31T02:47:21.034Z,8.60
2018-08-31T02:47:40.890Z,8.40
2018-08-31T02:48:01.246Z,6.00
2018-08-31T02:48:21.923Z,4.80
2018-08-31T02:48:41.830Z,4.90
2018-08-31T02:49:02.483Z,5.30
2018-08-31T02:49:22.621Z,5.80
2018-08-31T02:49:42.476Z,5.00
2018-08-31T02:50:03.120Z,6.80
2018-08-31T02:50:23.274Z,8.00
2018-08-31T02:50:43.126Z,8.60
2018-08-31T02:51:03.948Z,6.10
2018-08-31T02:51:24.184Z,4.70
2018-08-31T02:51:44.048Z,4.70
2018-08-31T02:52:04.718Z,4.40
2018-08-31T02:52:24.603Z,6.10
2018-08-31T02:52:44.948Z,6.50
2018-08-31T02:53:05.662Z,6.90
2018-08-31T02:53:25.518Z,6.30
2018-08-31T02:53:45.989Z,6.30
2018-08-31T02:54:06.620Z,6.60
2018-08-31T02:54:26.463Z,5.60
2018-08-31T02:54:46.821Z,5.50
2018-08-31T02:55:07.358Z,6.40
2018-08-31T02:55:27.195Z,6.70
2018-08-31T02:55:47.597Z,7.80
2018-08-31T02:56:08.265Z,7.30
2018-08-31T02:56:28.131Z,7.60
2018-08-31T02:56:48.823Z,7.20
2018-08-31T02:57:08.940Z,7.50
2018-08-31T02:57:28.797Z,7.70
2018-08-31T02:57:49.503Z,5.90
2018-08-31T02:58:09.467Z,5.30
2018-08-31T02:58:29.812Z,6.40
2018-08-31T02:58:50.522Z,7.00
2018-08-31T02:59:30.386Z,7.50
2018-08-31T02:59:51.089Z,6.40
2018-08-31T03:00:10.939Z,5.10
2018-08-31T03:00:31.505Z,5.40
2018-08-31T03:00:51.364Z,5.90
2018-08-31T03:01:11.756Z,6.50
2018-08-31T03:01:32.168Z,6.70
2018-08-31T03:01:52.805Z,7.80
2018-08-31T03:02:12.661Z,10.70
2018-08-31T03:02:33.129Z,9.70
2018-08-31T03:02:53.960Z,8.30
2018-08-31T03:03:13.813Z,4.10
2018-08-31T03:03:34.531Z,5.30
2018-08-31T03:03:54.575Z,5.50
2018-08-31T03:04:14.419Z,6.50
2018-08-31T03:04:35.124Z,6.50
2018-08-31T03:04:55.280Z,6.50
2018-08-31T03:05:15.468Z,7.00
2018-08-31T03:05:35.714Z,7.70
2018-08-31T03:05:55.562Z,8.00
2018-08-31T03:06:15.934Z,9.10
2018-08-31T03:06:36.561Z,8.10
2018-08-31T03:06:56.418Z,8.70
2018-08-31T03:07:16.771Z,7.70
2018-08-31T03:07:37.441Z,8.30
2018-08-31T03:07:57.293Z,6.70
2018-08-31T03:08:17.641Z,5.30
2018-08-31T03:08:38.291Z,4.80
2018-08-31T03:08:58.144Z,5.40
2018-08-31T03:09:18.868Z,5.50
2018-08-31T03:09:38.998Z,5.10
2018-08-31T03:09:58.906Z,6.80
2018-08-31T03:10:19.593Z,7.20
2018-08-31T03:10:39.559Z,6.80
2018-08-31T03:10:59.905Z,4.30
2018-08-31T03:11:20.620Z,5.60
2018-08-31T03:11:40.577Z,6.40
2018-08-31T03:12:00.965Z,5.70
2018-08-31T03:12:21.671Z,4.10
2018-08-31T03:12:41.525Z,5.10
2018-08-31T03:13:02.065Z,6.10
2018-08-31T03:13:22.227Z,5.80
2018-08-31T03:13:42.076Z,5.30
2018-08-31T03:14:02.677Z,4.70
2018-08-31T03:14:22.827Z,4.60
2018-08-31T03:14:42.670Z,4.30
2018-08-31T03:15:03.126Z,5.50
2018-08-31T03:15:23.786Z,6.20
2018-08-31T03:15:43.687Z,7.90
2018-08-31T03:16:04.379Z,6.50
2018-08-31T03:16:24.509Z,6.40
2018-08-31T03:16:44.364Z,5.30
2018-08-31T03:17:05.078Z,5.90
2018-08-31T03:17:24.943Z,5.10
2018-08-31T03:17:45.335Z,5.70
2018-08-31T03:18:06.030Z,5.90
2018-08-31T03:18:25.904Z,6.30
2018-08-31T03:18:46.316Z,8.20
2018-08-31T03:19:06.991Z,7.60
2018-08-31T03:19:26.837Z,7.90
2018-08-31T03:19:47.213Z,5.00
2018-08-31T03:20:07.830Z,4.50
2018-08-31T03:20:27.685Z,4.10
2018-08-31T03:20:48.186Z,4.90
2018-08-31T03:21:09.068Z,5.80
2018-08-31T03:21:29.005Z,5.60
2018-08-31T03:21:49.703Z,5.30
2018-08-31T03:22:09.685Z,5.80
2018-08-31T03:22:30.054Z,6.90
2018-08-31T03:22:50.785Z,7.50
2018-08-31T03:23:10.744Z,5.90
2018-08-31T03:23:31.103Z,6.00
2018-08-31T03:23:51.763Z,5.50
2018-08-31T03:24:11.864Z,6.00
2018-08-31T03:24:31.730Z,4.40
2018-08-31T03:24:52.382Z,4.40
2018-08-31T03:25:12.476Z,4.30
2018-08-31T03:25:32.337Z,4.30
2018-08-31T03:25:52.983Z,4.70
2018-08-31T03:26:12.866Z,5.50
2018-08-31T03:26:33.455Z,7.30
2018-08-31T03:26:53.588Z,7.70
2018-08-31T03:27:13.444Z,6.50
2018-08-31T03:27:34.193Z,5.40
2018-08-31T03:27:54.383Z,4.90
2018-08-31T03:28:14.249Z,5.00
2018-08-31T03:28:34.961Z,4.30
2018-08-31T03:28:54.824Z,5.60
2018-08-31T03:29:15.761Z,5.20
2018-08-31T03:29:35.979Z,5.60
2018-08-31T03:29:55.838Z,5.10
2018-08-31T03:30:16.510Z,6.40
2018-08-31T03:30:36.730Z,8.20
2018-08-31T03:30:56.658Z,9.10
2018-08-31T03:31:17.040Z,9.20
2018-08-31T03:31:37.688Z,8.50
2018-08-31T03:31:57.577Z,7.50
2018-08-31T03:32:17.980Z,6.50
2018-08-31T03:32:38.636Z,5.20
2018-08-31T03:32:58.498Z,5.70
2018-08-31T03:33:19.163Z,6.10
2018-08-31T03:33:39.202Z,6.70
2018-08-31T03:33:59.142Z,7.10
2018-08-31T03:34:19.872Z,7.80
2018-08-31T03:34:39.845Z,7.40
2018-08-31T03:35:00.202Z,5.90
2018-08-31T03:35:20.951Z,5.60
2018-08-31T03:35:40.868Z,5.20
2018-08-31T03:36:01.337Z,5.00
2018-08-31T03:36:22.046Z,4.70
2018-08-31T03:36:41.905Z,6.50
2018-08-31T03:37:02.618Z,7.30
2018-08-31T03:37:22.710Z,7.00
2018-08-31T03:37:42.562Z,5.00
2018-08-31T03:38:03.031Z,4.50
2018-08-31T03:38:23.661Z,3.70
2018-08-31T03:38:43.517Z,4.70
2018-08-31T03:39:04.221Z,5.00
2018-08-31T03:39:24.314Z,6.20
2018-08-31T03:39:44.181Z,7.00
2018-08-31T03:40:04.826Z,6.50
2018-08-31T03:40:24.680Z,6.30
2018-08-31T03:40:45.046Z,6.20
2018-08-31T03:41:05.737Z,8.10
2018-08-31T03:41:25.604Z,8.40
2018-08-31T03:41:46.014Z,7.60
2018-08-31T03:42:06.688Z,7.30
2018-08-31T03:42:26.591Z,6.80
2018-08-31T03:42:46.944Z,8.10
2018-08-31T03:43:07.604Z,8.10
2018-08-31T03:43:27.529Z,7.40
2018-08-31T03:43:47.847Z,7.00
2018-08-31T03:44:08.503Z,7.20
2018-08-31T03:44:28.365Z,8.70
2018-08-31T03:44:49.086Z,8.30
2018-08-31T03:45:09.488Z,7.80
2018-08-31T03:45:29.363Z,7.20
2018-08-31T03:45:50.106Z,7.50
2018-08-31T03:46:10.256Z,6.40
2018-08-31T03:46:30.132Z,6.00
2018-08-31T03:46:50.835Z,7.10
2018-08-31T03:47:10.713Z,6.10
2018-08-31T03:47:31.832Z,5.90
2018-08-31T03:48:02.725Z,6.20
2018-08-31T03:48:14.321Z,8.60
2018-08-31T03:48:31.692Z,8.10
2018-08-31T03:48:52.353Z,6.30
2018-08-31T03:49:12.201Z,4.50
2018-08-31T03:49:32.570Z,5.00
2018-08-31T03:49:53.221Z,5.10
2018-08-31T03:50:13.240Z,6.40
2018-08-31T03:50:33.302Z,6.50
2018-08-31T03:50:53.766Z,6.40
2018-08-31T03:51:13.641Z,6.20
2018-08-31T03:51:34.372Z,7.20
2018-08-31T03:51:54.302Z,7.80
2018-08-31T03:52:14.666Z,6.90
2018-08-31T03:52:35.379Z,7.10
2018-08-31T03:53:15.261Z,8.10
2018-08-31T03:53:35.963Z,6.90
2018-08-31T03:53:55.838Z,6.20
2018-08-31T03:54:16.207Z,7.60
2018-08-31T03:54:36.883Z,7.30
2018-08-31T03:54:56.757Z,7.00
2018-08-31T03:55:17.113Z,6.20
2018-08-31T03:55:37.753Z,9.20
2018-08-31T03:55:57.603Z,15.90
2018-08-31T03:56:17.991Z,15.40
2018-08-31T03:56:38.662Z,13.10
2018-08-31T03:57:18.911Z,6.10
2018-08-31T03:57:39.132Z,6.20
2018-08-31T03:57:59.141Z,7.70
2018-08-31T03:58:19.353Z,6.90
2018-08-31T03:58:39.462Z,6.20
2018-08-31T03:58:59.439Z,6.20
2018-08-31T03:59:20.212Z,6.50
2018-08-31T03:59:40.071Z,6.60
2018-08-31T04:00:00.433Z,6.40
2018-08-31T04:00:21.140Z,6.30
2018-08-31T04:00:40.997Z,6.80
2018-08-31T04:01:01.373Z,5.50
2018-08-31T04:01:22.048Z,4.50
2018-08-31T04:01:41.947Z,4.40
2018-08-31T04:02:02.305Z,4.80
2018-08-31T04:02:22.957Z,5.80
2018-08-31T04:02:42.824Z,6.00
2018-08-31T04:03:03.485Z,6.20
2018-08-31T04:03:23.623Z,6.40
2018-08-31T04:03:43.482Z,6.30
2018-08-31T04:04:04.213Z,7.20
2018-08-31T04:04:24.159Z,7.40
2018-08-31T04:04:44.523Z,5.90
2018-08-31T04:05:05.259Z,5.00
2018-08-31T04:05:25.120Z,4.20
2018-08-31T04:05:45.495Z,7.00
2018-08-31T04:06:06.218Z,8.20
2018-08-31T04:06:26.074Z,8.80
2018-08-31T04:06:46.438Z,7.50
2018-08-31T04:07:07.141Z,7.30
2018-08-31T04:07:26.989Z,7.40
2018-08-31T04:07:47.335Z,8.10
2018-08-31T04:08:07.921Z,8.20
2018-08-31T04:08:27.782Z,9.00
2018-08-31T04:08:48.307Z,8.80
2018-08-31T04:09:08.460Z,8.30
2018-08-31T04:09:28.336Z,8.60
2018-08-31T04:09:49.025Z,7.10
2018-08-31T04:10:09.142Z,6.70
2018-08-31T04:10:29.140Z,6.40
2018-08-31T04:10:49.889Z,7.30
2018-08-31T04:11:09.961Z,7.90
2018-08-31T04:11:29.826Z,7.80
2018-08-31T04:11:50.580Z,7.70
2018-08-31T04:12:10.437Z,7.00
2018-08-31T04:12:30.801Z,7.00
2018-08-31T04:12:51.473Z,6.90
2018-08-31T04:13:11.351Z,7.20
2018-08-31T04:13:31.713Z,6.20
2018-08-31T04:13:52.419Z,5.60
2018-08-31T04:14:12.277Z,9.10
2018-08-31T04:14:32.633Z,10.00
2018-08-31T04:14:53.348Z,10.20
2018-08-31T04:15:13.285Z,7.50
2018-08-31T04:15:33.948Z,8.00
2018-08-31T04:15:54.116Z,7.70
2018-08-31T04:16:14.019Z,7.90
2018-08-31T04:16:34.760Z,7.10
2018-08-31T04:16:54.611Z,7.00
2018-08-31T04:17:14.995Z,6.10
2018-08-31T04:17:35.702Z,5.90
2018-08-31T04:17:55.563Z,7.10
2018-08-31T04:18:15.928Z,8.10
2018-08-31T04:18:36.638Z,6.40
2018-08-31T04:18:56.499Z,7.00
2018-08-31T04:19:16.849Z,6.20
2018-08-31T04:19:37.542Z,7.70
2018-08-31T04:19:57.403Z,6.90
2018-08-31T04:20:18.027Z,7.10
2018-08-31T04:20:38.165Z,6.50
2018-08-31T04:20:58.033Z,6.50
2018-08-31T04:21:18.684Z,6.10
2018-08-31T04:21:38.871Z,7.40
2018-08-31T04:21:58.878Z,6.70
2018-08-31T04:22:19.130Z,7.10
2018-08-31T04:22:39.186Z,5.80
2018-08-31T04:22:59.050Z,5.20
2018-08-31T04:23:19.780Z,5.50
2018-08-31T04:23:39.889Z,5.60
2018-08-31T04:23:59.788Z,6.20
2018-08-31T04:24:20.537Z,6.00
2018-08-31T04:24:40.387Z,7.20
2018-08-31T04:25:00.759Z,6.70
2018-08-31T04:25:21.480Z,7.70
2018-08-31T04:25:41.380Z,6.60
2018-08-31T04:26:01.754Z,8.50
2018-08-31T04:26:22.431Z,9.10
2018-08-31T04:26:42.290Z,10.60
2018-08-31T04:27:02.876Z,10.90
2018-08-31T04:27:23.021Z,11.10
2018-08-31T04:27:42.883Z,11.20
2018-08-31T04:28:03.623Z,13.50
2018-08-31T04:28:23.780Z,14.40
2018-08-31T04:28:43.642Z,13.70
2018-08-31T04:29:04.397Z,12.00
2018-08-31T04:29:24.368Z,10.00
2018-08-31T04:29:44.729Z,8.70
2018-08-31T04:30:05.455Z,7.50
2018-08-31T04:30:25.314Z,6.70
2018-08-31T04:30:45.668Z,6.10
2018-08-31T04:31:06.334Z,7.00
2018-08-31T04:31:26.204Z,7.80
2018-08-31T04:31:46.583Z,9.40
2018-08-31T04:32:07.279Z,7.50
2018-08-31T04:32:27.127Z,6.40
2018-08-31T04:32:47.583Z,5.60
2018-08-31T04:33:08.235Z,6.90
2018-08-31T04:33:28.094Z,6.00
2018-08-31T04:33:48.811Z,7.20